sensor_id;sensor_type;location;lat;lon;timestamp;P1;durP1;ratioP1;P2;durP2;ratioP2
18726;SDS011;9492;51.888;5.186;2022-11-20T00:01:08;56.67;;;37.07;;
18726;SDS011;9492;51.888;5.186;2022-11-20T00:03:35;29.57;;;21.03;;
18726;SDS011;9492;51.888;5.186;2022-11-20T00:06:01;17.73;;;13.43;;
18726;SDS011;9492;51.888;5.186;2022-11-20T00:08:28;19.23;;;13.30;;
18726;SDS011;9492;51.888;5.186;2022-11-20T00:10:54;16.80;;;12.47;;
18726;SDS011;9492;51.888;5.186;2022-11-20T00:13:20;15.90;;;11.70;;
18726;SDS011;9492;51.888;5.186;2022-11-20T00:15:46;16.50;;;12.33;;
18726;SDS011;9492;51.888;5.186;2022-11-20T00:18:12;16.63;;;12.53;;
18726;SDS011;9492;51.888;5.186;2022-11-20T00:20:38;17.83;;;12.50;;
18726;SDS011;9492;51.888;5.186;2022-11-20T00:23:04;18.90;;;12.97;;
18726;SDS011;9492;51.888;5.186;2022-11-20T00:25:33;16.30;;;13.07;;
18726;SDS011;9492;51.888;5.186;2022-11-20T00:27:59;17.30;;;13.37;;
18726;SDS011;9492;51.888;5.186;2022-11-20T00:30:25;16.10;;;11.87;;
18726;SDS011;9492;51.888;5.186;2022-11-20T00:32:51;14.77;;;11.20;;
18726;SDS011;9492;51.888;5.186;2022-11-20T00:35:17;14.73;;;12.50;;
18726;SDS011;9492;51.888;5.186;2022-11-20T00:37:43;13.60;;;10.70;;
18726;SDS011;9492;51.888;5.186;2022-11-20T00:40:09;13.57;;;9.67;;
18726;SDS011;9492;51.888;5.186;2022-11-20T00:42:35;15.43;;;10.40;;
18726;SDS011;9492;51.888;5.186;2022-11-20T00:45:01;17.33;;;12.17;;
18726;SDS011;9492;51.888;5.186;2022-11-20T00:47:27;20.17;;;15.43;;
18726;SDS011;9492;51.888;5.186;2022-11-20T00:49:53;17.53;;;13.27;;
18726;SDS011;9492;51.888;5.186;2022-11-20T00:52:19;16.37;;;11.33;;
18726;SDS011;9492;51.888;5.186;2022-11-20T00:54:45;16.57;;;10.10;;
18726;SDS011;9492;51.888;5.186;2022-11-20T00:57:11;15.10;;;10.60;;
18726;SDS011;9492;51.888;5.186;2022-11-20T00:59:37;14.40;;;11.60;;
18726;SDS011;9492;51.888;5.186;2022-11-20T01:02:03;16.20;;;12.43;;
18726;SDS011;9492;51.888;5.186;2022-11-20T01:04:29;15.40;;;11.27;;
18726;SDS011;9492;51.888;5.186;2022-11-20T01:06:55;17.93;;;12.80;;
18726;SDS011;9492;51.888;5.186;2022-11-20T01:09:21;14.70;;;11.27;;
18726;SDS011;9492;51.888;5.186;2022-11-20T01:11:47;17.00;;;13.93;;
18726;SDS011;9492;51.888;5.186;2022-11-20T01:14:14;15.57;;;12.70;;
18726;SDS011;9492;51.888;5.186;2022-11-20T01:16:41;14.10;;;11.30;;
18726;SDS011;9492;51.888;5.186;2022-11-20T01:19:09;12.60;;;9.97;;
18726;SDS011;9492;51.888;5.186;2022-11-20T01:21:37;14.37;;;11.67;;
18726;SDS011;9492;51.888;5.186;2022-11-20T01:24:05;13.57;;;10.67;;
18726;SDS011;9492;51.888;5.186;2022-11-20T01:26:33;15.03;;;12.00;;
18726;SDS011;9492;51.888;5.186;2022-11-20T01:28:59;17.40;;;13.43;;
18726;SDS011;9492;51.888;5.186;2022-11-20T01:31:27;14.17;;;11.53;;
18726;SDS011;9492;51.888;5.186;2022-11-20T01:33:55;18.63;;;13.73;;
18726;SDS011;9492;51.888;5.186;2022-11-20T01:36:22;30.67;;;21.90;;
18726;SDS011;9492;51.888;5.186;2022-11-20T01:38:55;36.57;;;24.67;;
18726;SDS011;9492;51.888;5.186;2022-11-20T01:41:22;30.10;;;21.80;;
18726;SDS011;9492;51.888;5.186;2022-11-20T01:44:08;28.67;;;21.77;;
18726;SDS011;9492;51.888;5.186;2022-11-20T01:46:36;22.50;;;18.80;;
18726;SDS011;9492;51.888;5.186;2022-11-20T01:49:04;18.03;;;14.10;;
18726;SDS011;9492;51.888;5.186;2022-11-20T01:51:35;16.90;;;12.57;;
18726;SDS011;9492;51.888;5.186;2022-11-20T01:54:05;15.30;;;11.30;;
18726;SDS011;9492;51.888;5.186;2022-11-20T01:56:33;13.07;;;10.37;;
18726;SDS011;9492;51.888;5.186;2022-11-20T01:59:01;13.27;;;10.60;;
18726;SDS011;9492;51.888;5.186;2022-11-20T02:01:30;15.87;;;12.20;;
18726;SDS011;9492;51.888;5.186;2022-11-20T02:03:56;13.17;;;10.83;;
18726;SDS011;9492;51.888;5.186;2022-11-20T02:06:26;14.57;;;10.63;;
18726;SDS011;9492;51.888;5.186;2022-11-20T02:08:53;15.97;;;13.33;;
18726;SDS011;9492;51.888;5.186;2022-11-20T02:11:19;15.03;;;12.20;;
18726;SDS011;9492;51.888;5.186;2022-11-20T02:13:46;15.47;;;12.27;;
18726;SDS011;9492;51.888;5.186;2022-11-20T02:16:17;16.50;;;11.40;;
18726;SDS011;9492;51.888;5.186;2022-11-20T02:18:44;14.63;;;10.93;;
18726;SDS011;9492;51.888;5.186;2022-11-20T02:23:52;16.07;;;10.93;;
18726;SDS011;9492;51.888;5.186;2022-11-20T02:26:18;14.83;;;11.10;;
18726;SDS011;9492;51.888;5.186;2022-11-20T02:28:46;14.13;;;11.40;;
18726;SDS011;9492;51.888;5.186;2022-11-20T02:31:12;13.90;;;10.30;;
18726;SDS011;9492;51.888;5.186;2022-11-20T02:33:38;15.10;;;10.60;;
18726;SDS011;9492;51.888;5.186;2022-11-20T02:36:04;15.47;;;10.67;;
18726;SDS011;9492;51.888;5.186;2022-11-20T02:38:30;14.60;;;11.53;;
18726;SDS011;9492;51.888;5.186;2022-11-20T02:40:56;15.97;;;10.10;;
18726;SDS011;9492;51.888;5.186;2022-11-20T02:43:22;12.57;;;9.50;;
18726;SDS011;9492;51.888;5.186;2022-11-20T02:45:49;13.30;;;10.03;;
18726;SDS011;9492;51.888;5.186;2022-11-20T02:48:15;17.47;;;13.77;;
18726;SDS011;9492;51.888;5.186;2022-11-20T02:50:41;21.17;;;14.63;;
18726;SDS011;9492;51.888;5.186;2022-11-20T02:53:07;20.07;;;13.97;;
18726;SDS011;9492;51.888;5.186;2022-11-20T02:55:33;15.67;;;11.60;;
18726;SDS011;9492;51.888;5.186;2022-11-20T02:57:59;14.93;;;11.30;;
18726;SDS011;9492;51.888;5.186;2022-11-20T03:00:25;15.33;;;11.70;;
18726;SDS011;9492;51.888;5.186;2022-11-20T03:02:51;15.53;;;11.77;;
18726;SDS011;9492;51.888;5.186;2022-11-20T03:05:17;20.57;;;12.80;;
18726;SDS011;9492;51.888;5.186;2022-11-20T03:07:43;15.63;;;12.10;;
18726;SDS011;9492;51.888;5.186;2022-11-20T03:10:09;16.00;;;11.87;;
18726;SDS011;9492;51.888;5.186;2022-11-20T03:12:35;14.43;;;11.80;;
18726;SDS011;9492;51.888;5.186;2022-11-20T03:15:01;19.97;;;13.80;;
18726;SDS011;9492;51.888;5.186;2022-11-20T03:17:27;18.83;;;12.33;;
18726;SDS011;9492;51.888;5.186;2022-11-20T03:19:54;16.03;;;11.43;;
18726;SDS011;9492;51.888;5.186;2022-11-20T03:22:20;22.23;;;15.67;;
18726;SDS011;9492;51.888;5.186;2022-11-20T03:24:46;17.07;;;12.03;;
18726;SDS011;9492;51.888;5.186;2022-11-20T03:27:12;24.70;;;15.40;;
18726;SDS011;9492;51.888;5.186;2022-11-20T03:29:38;21.57;;;14.10;;
18726;SDS011;9492;51.888;5.186;2022-11-20T03:32:04;18.93;;;13.33;;
18726;SDS011;9492;51.888;5.186;2022-11-20T03:34:30;16.50;;;11.63;;
18726;SDS011;9492;51.888;5.186;2022-11-20T03:36:56;14.77;;;11.53;;
18726;SDS011;9492;51.888;5.186;2022-11-20T03:39:22;15.17;;;11.03;;
18726;SDS011;9492;51.888;5.186;2022-11-20T03:41:48;14.33;;;11.67;;
18726;SDS011;9492;51.888;5.186;2022-11-20T03:44:14;14.27;;;10.00;;
18726;SDS011;9492;51.888;5.186;2022-11-20T03:46:40;14.33;;;10.60;;
18726;SDS011;9492;51.888;5.186;2022-11-20T03:49:06;12.47;;;10.50;;
18726;SDS011;9492;51.888;5.186;2022-11-20T03:51:34;15.60;;;11.63;;
18726;SDS011;9492;51.888;5.186;2022-11-20T03:54:04;16.67;;;11.80;;
18726;SDS011;9492;51.888;5.186;2022-11-20T03:56:32;15.83;;;12.20;;
18726;SDS011;9492;51.888;5.186;2022-11-20T03:58:58;19.03;;;12.20;;
18726;SDS011;9492;51.888;5.186;2022-11-20T04:01:27;15.47;;;11.17;;
18726;SDS011;9492;51.888;5.186;2022-11-20T04:03:54;15.53;;;11.80;;
18726;SDS011;9492;51.888;5.186;2022-11-20T04:06:21;17.27;;;12.23;;
18726;SDS011;9492;51.888;5.186;2022-11-20T04:08:47;16.43;;;11.37;;
18726;SDS011;9492;51.888;5.186;2022-11-20T04:11:17;14.57;;;11.57;;
18726;SDS011;9492;51.888;5.186;2022-11-20T04:13:51;14.37;;;11.37;;
18726;SDS011;9492;51.888;5.186;2022-11-20T04:16:17;14.73;;;10.50;;
18726;SDS011;9492;51.888;5.186;2022-11-20T04:18:44;14.70;;;10.60;;
18726;SDS011;9492;51.888;5.186;2022-11-20T04:21:10;14.47;;;10.70;;
18726;SDS011;9492;51.888;5.186;2022-11-20T04:23:36;16.00;;;11.03;;
18726;SDS011;9492;51.888;5.186;2022-11-20T04:26:07;17.33;;;11.60;;
18726;SDS011;9492;51.888;5.186;2022-11-20T04:28:33;17.97;;;12.27;;
18726;SDS011;9492;51.888;5.186;2022-11-20T04:31:06;15.93;;;11.17;;
18726;SDS011;9492;51.888;5.186;2022-11-20T04:33:32;15.27;;;11.00;;
18726;SDS011;9492;51.888;5.186;2022-11-20T04:36:05;14.17;;;10.40;;
18726;SDS011;9492;51.888;5.186;2022-11-20T04:38:31;16.93;;;10.93;;
18726;SDS011;9492;51.888;5.186;2022-11-20T04:40:58;15.17;;;10.77;;
18726;SDS011;9492;51.888;5.186;2022-11-20T04:43:24;14.33;;;10.50;;
18726;SDS011;9492;51.888;5.186;2022-11-20T04:45:51;13.43;;;10.70;;
18726;SDS011;9492;51.888;5.186;2022-11-20T04:48:17;13.37;;;10.63;;
18726;SDS011;9492;51.888;5.186;2022-11-20T04:50:43;14.80;;;10.80;;
18726;SDS011;9492;51.888;5.186;2022-11-20T04:53:09;14.87;;;10.90;;
18726;SDS011;9492;51.888;5.186;2022-11-20T04:55:35;14.10;;;10.03;;
18726;SDS011;9492;51.888;5.186;2022-11-20T04:58:01;14.30;;;10.67;;
18726;SDS011;9492;51.888;5.186;2022-11-20T05:00:27;16.33;;;11.30;;
18726;SDS011;9492;51.888;5.186;2022-11-20T05:02:53;16.97;;;11.40;;
18726;SDS011;9492;51.888;5.186;2022-11-20T05:05:19;17.90;;;10.93;;
18726;SDS011;9492;51.888;5.186;2022-11-20T05:07:45;16.73;;;11.63;;
18726;SDS011;9492;51.888;5.186;2022-11-20T05:10:11;13.97;;;10.73;;
18726;SDS011;9492;51.888;5.186;2022-11-20T05:12:37;14.90;;;11.07;;
18726;SDS011;9492;51.888;5.186;2022-11-20T05:15:03;15.43;;;11.37;;
18726;SDS011;9492;51.888;5.186;2022-11-20T05:17:29;15.37;;;11.50;;
18726;SDS011;9492;51.888;5.186;2022-11-20T05:19:55;14.83;;;11.10;;
18726;SDS011;9492;51.888;5.186;2022-11-20T05:22:21;15.50;;;10.60;;
18726;SDS011;9492;51.888;5.186;2022-11-20T05:24:47;16.63;;;10.50;;
18726;SDS011;9492;51.888;5.186;2022-11-20T05:27:13;17.10;;;10.97;;
18726;SDS011;9492;51.888;5.186;2022-11-20T05:29:39;17.97;;;11.97;;
18726;SDS011;9492;51.888;5.186;2022-11-20T05:32:05;16.10;;;11.50;;
18726;SDS011;9492;51.888;5.186;2022-11-20T05:34:33;17.77;;;11.97;;
18726;SDS011;9492;51.888;5.186;2022-11-20T05:36:59;16.23;;;12.00;;
18726;SDS011;9492;51.888;5.186;2022-11-20T05:39:25;14.63;;;11.67;;
18726;SDS011;9492;51.888;5.186;2022-11-20T05:41:51;15.57;;;12.07;;
18726;SDS011;9492;51.888;5.186;2022-11-20T05:44:37;15.83;;;10.93;;
18726;SDS011;9492;51.888;5.186;2022-11-20T05:47:03;13.00;;;9.63;;
18726;SDS011;9492;51.888;5.186;2022-11-20T05:49:29;17.67;;;10.97;;
18726;SDS011;9492;51.888;5.186;2022-11-20T05:51:56;13.40;;;10.33;;
18726;SDS011;9492;51.888;5.186;2022-11-20T05:54:22;15.77;;;10.03;;
18726;SDS011;9492;51.888;5.186;2022-11-20T05:56:47;14.63;;;10.07;;
18726;SDS011;9492;51.888;5.186;2022-11-20T05:59:13;14.63;;;10.73;;
18726;SDS011;9492;51.888;5.186;2022-11-20T06:01:39;13.47;;;9.87;;
18726;SDS011;9492;51.888;5.186;2022-11-20T06:04:05;15.53;;;10.40;;
18726;SDS011;9492;51.888;5.186;2022-11-20T06:06:31;14.40;;;11.00;;
18726;SDS011;9492;51.888;5.186;2022-11-20T06:08:57;13.53;;;10.47;;
18726;SDS011;9492;51.888;5.186;2022-11-20T06:11:24;15.43;;;10.27;;
18726;SDS011;9492;51.888;5.186;2022-11-20T06:13:50;14.23;;;10.03;;
18726;SDS011;9492;51.888;5.186;2022-11-20T06:16:17;13.97;;;10.40;;
18726;SDS011;9492;51.888;5.186;2022-11-20T06:18:43;13.27;;;10.77;;
18726;SDS011;9492;51.888;5.186;2022-11-20T06:21:11;13.23;;;10.30;;
18726;SDS011;9492;51.888;5.186;2022-11-20T06:23:37;14.97;;;11.43;;
18726;SDS011;9492;51.888;5.186;2022-11-20T06:26:07;15.03;;;10.67;;
18726;SDS011;9492;51.888;5.186;2022-11-20T06:28:34;13.37;;;10.10;;
18726;SDS011;9492;51.888;5.186;2022-11-20T06:31:01;13.63;;;10.73;;
18726;SDS011;9492;51.888;5.186;2022-11-20T06:33:27;12.60;;;10.07;;
18726;SDS011;9492;51.888;5.186;2022-11-20T06:35:55;15.97;;;11.87;;
18726;SDS011;9492;51.888;5.186;2022-11-20T06:38:22;16.10;;;11.60;;
18726;SDS011;9492;51.888;5.186;2022-11-20T06:40:48;17.03;;;11.80;;
18726;SDS011;9492;51.888;5.186;2022-11-20T06:43:14;15.93;;;11.63;;
18726;SDS011;9492;51.888;5.186;2022-11-20T06:45:39;17.43;;;12.23;;
18726;SDS011;9492;51.888;5.186;2022-11-20T06:48:05;16.50;;;11.73;;
18726;SDS011;9492;51.888;5.186;2022-11-20T06:50:31;18.00;;;12.40;;
18726;SDS011;9492;51.888;5.186;2022-11-20T06:53:00;15.73;;;12.17;;
18726;SDS011;9492;51.888;5.186;2022-11-20T06:55:27;20.10;;;13.73;;
18726;SDS011;9492;51.888;5.186;2022-11-20T06:57:53;19.47;;;14.03;;
18726;SDS011;9492;51.888;5.186;2022-11-20T07:00:19;17.70;;;12.73;;
18726;SDS011;9492;51.888;5.186;2022-11-20T07:02:45;17.20;;;12.63;;
18726;SDS011;9492;51.888;5.186;2022-11-20T07:05:11;16.43;;;11.17;;
18726;SDS011;9492;51.888;5.186;2022-11-20T07:07:37;16.93;;;11.87;;
18726;SDS011;9492;51.888;5.186;2022-11-20T07:10:03;17.77;;;12.83;;
18726;SDS011;9492;51.888;5.186;2022-11-20T07:12:30;17.37;;;12.23;;
18726;SDS011;9492;51.888;5.186;2022-11-20T07:14:56;15.60;;;11.53;;
18726;SDS011;9492;51.888;5.186;2022-11-20T07:17:22;17.23;;;12.40;;
18726;SDS011;9492;51.888;5.186;2022-11-20T07:19:48;18.57;;;12.77;;
18726;SDS011;9492;51.888;5.186;2022-11-20T07:22:14;16.87;;;12.33;;
18726;SDS011;9492;51.888;5.186;2022-11-20T07:24:40;17.97;;;12.50;;
18726;SDS011;9492;51.888;5.186;2022-11-20T07:27:06;17.03;;;11.50;;
18726;SDS011;9492;51.888;5.186;2022-11-20T07:29:32;17.90;;;13.57;;
18726;SDS011;9492;51.888;5.186;2022-11-20T07:31:58;18.90;;;12.50;;
18726;SDS011;9492;51.888;5.186;2022-11-20T07:34:24;18.60;;;13.03;;
18726;SDS011;9492;51.888;5.186;2022-11-20T07:36:50;18.63;;;12.90;;
18726;SDS011;9492;51.888;5.186;2022-11-20T07:39:16;16.67;;;13.03;;
18726;SDS011;9492;51.888;5.186;2022-11-20T07:41:42;18.40;;;12.90;;
18726;SDS011;9492;51.888;5.186;2022-11-20T07:44:08;23.13;;;14.37;;
18726;SDS011;9492;51.888;5.186;2022-11-20T07:46:34;18.10;;;13.03;;
18726;SDS011;9492;51.888;5.186;2022-11-20T07:49:00;18.27;;;12.67;;
18726;SDS011;9492;51.888;5.186;2022-11-20T07:51:26;18.70;;;13.00;;
18726;SDS011;9492;51.888;5.186;2022-11-20T07:53:53;16.23;;;12.20;;
18726;SDS011;9492;51.888;5.186;2022-11-20T07:56:19;18.57;;;13.60;;
18726;SDS011;9492;51.888;5.186;2022-11-20T07:58:45;20.73;;;13.67;;
18726;SDS011;9492;51.888;5.186;2022-11-20T08:01:10;19.30;;;13.07;;
18726;SDS011;9492;51.888;5.186;2022-11-20T08:03:36;20.30;;;14.20;;
18726;SDS011;9492;51.888;5.186;2022-11-20T08:06:02;17.07;;;13.80;;
18726;SDS011;9492;51.888;5.186;2022-11-20T08:08:29;19.60;;;13.80;;
18726;SDS011;9492;51.888;5.186;2022-11-20T08:10:58;19.47;;;13.57;;
18726;SDS011;9492;51.888;5.186;2022-11-20T08:13:43;18.73;;;13.07;;
18726;SDS011;9492;51.888;5.186;2022-11-20T08:16:28;23.57;;;14.73;;
18726;SDS011;9492;51.888;5.186;2022-11-20T08:18:54;17.43;;;13.87;;
18726;SDS011;9492;51.888;5.186;2022-11-20T08:21:20;21.70;;;14.03;;
18726;SDS011;9492;51.888;5.186;2022-11-20T08:23:46;19.30;;;13.93;;
18726;SDS011;9492;51.888;5.186;2022-11-20T08:26:12;20.93;;;13.73;;
18726;SDS011;9492;51.888;5.186;2022-11-20T08:28:38;18.33;;;13.33;;
18726;SDS011;9492;51.888;5.186;2022-11-20T08:31:04;20.57;;;14.97;;
18726;SDS011;9492;51.888;5.186;2022-11-20T08:33:30;19.80;;;14.63;;
18726;SDS011;9492;51.888;5.186;2022-11-20T08:35:58;19.27;;;14.77;;
18726;SDS011;9492;51.888;5.186;2022-11-20T08:38:24;20.03;;;14.93;;
18726;SDS011;9492;51.888;5.186;2022-11-20T08:40:50;18.73;;;13.93;;
18726;SDS011;9492;51.888;5.186;2022-11-20T08:43:35;22.10;;;14.40;;
18726;SDS011;9492;51.888;5.186;2022-11-20T08:46:01;19.83;;;14.43;;
18726;SDS011;9492;51.888;5.186;2022-11-20T08:48:27;20.77;;;15.17;;
18726;SDS011;9492;51.888;5.186;2022-11-20T08:50:53;21.20;;;15.73;;
18726;SDS011;9492;51.888;5.186;2022-11-20T08:53:19;21.07;;;15.80;;
18726;SDS011;9492;51.888;5.186;2022-11-20T08:55:45;23.87;;;16.60;;
18726;SDS011;9492;51.888;5.186;2022-11-20T08:58:11;26.20;;;19.07;;
18726;SDS011;9492;51.888;5.186;2022-11-20T09:00:37;27.50;;;18.97;;
18726;SDS011;9492;51.888;5.186;2022-11-20T09:03:03;25.73;;;17.70;;
18726;SDS011;9492;51.888;5.186;2022-11-20T09:05:29;20.43;;;15.07;;
18726;SDS011;9492;51.888;5.186;2022-11-20T09:07:56;22.07;;;14.73;;
18726;SDS011;9492;51.888;5.186;2022-11-20T09:10:22;20.50;;;14.87;;
18726;SDS011;9492;51.888;5.186;2022-11-20T09:12:48;23.03;;;16.10;;
18726;SDS011;9492;51.888;5.186;2022-11-20T09:15:15;20.43;;;15.33;;
18726;SDS011;9492;51.888;5.186;2022-11-20T09:17:41;23.23;;;16.23;;
18726;SDS011;9492;51.888;5.186;2022-11-20T09:20:07;21.27;;;15.63;;
18726;SDS011;9492;51.888;5.186;2022-11-20T09:22:33;22.63;;;16.97;;
18726;SDS011;9492;51.888;5.186;2022-11-20T09:24:59;23.50;;;16.00;;
18726;SDS011;9492;51.888;5.186;2022-11-20T09:27:25;19.80;;;15.37;;
18726;SDS011;9492;51.888;5.186;2022-11-20T09:29:51;21.90;;;15.27;;
18726;SDS011;9492;51.888;5.186;2022-11-20T09:32:17;22.67;;;15.40;;
18726;SDS011;9492;51.888;5.186;2022-11-20T09:34:43;21.13;;;15.00;;
18726;SDS011;9492;51.888;5.186;2022-11-20T09:37:09;20.80;;;15.27;;
18726;SDS011;9492;51.888;5.186;2022-11-20T09:39:35;25.07;;;16.33;;
18726;SDS011;9492;51.888;5.186;2022-11-20T09:42:07;20.20;;;15.13;;
18726;SDS011;9492;51.888;5.186;2022-11-20T09:47:08;19.97;;;15.13;;
18726;SDS011;9492;51.888;5.186;2022-11-20T09:54:53;21.90;;;16.50;;
18726;SDS011;9492;51.888;5.186;2022-11-20T09:57:21;23.43;;;17.33;;
18726;SDS011;9492;51.888;5.186;2022-11-20T09:59:50;21.00;;;15.53;;
18726;SDS011;9492;51.888;5.186;2022-11-20T10:02:20;23.83;;;16.20;;
18726;SDS011;9492;51.888;5.186;2022-11-20T10:04:57;20.73;;;15.13;;
18726;SDS011;9492;51.888;5.186;2022-11-20T10:09:57;22.50;;;16.30;;
18726;SDS011;9492;51.888;5.186;2022-11-20T10:12:28;23.10;;;16.20;;
18726;SDS011;9492;51.888;5.186;2022-11-20T10:25:18;22.63;;;15.63;;
18726;SDS011;9492;51.888;5.186;2022-11-20T10:30:30;26.63;;;16.97;;
18726;SDS011;9492;51.888;5.186;2022-11-20T10:35:44;26.17;;;17.20;;
18726;SDS011;9492;51.888;5.186;2022-11-20T10:38:25;25.37;;;17.07;;
18726;SDS011;9492;51.888;5.186;2022-11-20T10:40:56;24.07;;;17.10;;
18726;SDS011;9492;51.888;5.186;2022-11-20T10:43:41;26.37;;;18.37;;
18726;SDS011;9492;51.888;5.186;2022-11-20T10:46:10;24.23;;;17.57;;
18726;SDS011;9492;51.888;5.186;2022-11-20T10:48:38;25.30;;;17.27;;
18726;SDS011;9492;51.888;5.186;2022-11-20T10:56:31;27.30;;;17.60;;
18726;SDS011;9492;51.888;5.186;2022-11-20T10:59:03;26.37;;;17.23;;
18726;SDS011;9492;51.888;5.186;2022-11-20T11:01:30;26.13;;;18.43;;
18726;SDS011;9492;51.888;5.186;2022-11-20T11:03:56;25.83;;;16.97;;
18726;SDS011;9492;51.888;5.186;2022-11-20T11:06:39;36.13;;;16.33;;
18726;SDS011;9492;51.888;5.186;2022-11-20T11:09:11;29.23;;;17.53;;
18726;SDS011;9492;51.888;5.186;2022-11-20T11:11:39;29.67;;;18.97;;
18726;SDS011;9492;51.888;5.186;2022-11-20T11:14:10;29.23;;;18.93;;
18726;SDS011;9492;51.888;5.186;2022-11-20T11:16:40;28.30;;;19.07;;
18726;SDS011;9492;51.888;5.186;2022-11-20T11:19:13;29.30;;;17.97;;
18726;SDS011;9492;51.888;5.186;2022-11-20T11:21:43;24.33;;;17.87;;
18726;SDS011;9492;51.888;5.186;2022-11-20T11:24:21;29.87;;;19.60;;
18726;SDS011;9492;51.888;5.186;2022-11-20T11:27:00;29.37;;;18.00;;
18726;SDS011;9492;51.888;5.186;2022-11-20T11:29:31;27.10;;;18.17;;
18726;SDS011;9492;51.888;5.186;2022-11-20T11:34:30;29.90;;;19.17;;
18726;SDS011;9492;51.888;5.186;2022-11-20T11:36:58;29.80;;;19.50;;
18726;SDS011;9492;51.888;5.186;2022-11-20T11:39:25;28.73;;;19.47;;
18726;SDS011;9492;51.888;5.186;2022-11-20T11:41:52;28.30;;;19.60;;
18726;SDS011;9492;51.888;5.186;2022-11-20T11:44:19;28.80;;;19.37;;
18726;SDS011;9492;51.888;5.186;2022-11-20T11:47:05;33.17;;;19.57;;
18726;SDS011;9492;51.888;5.186;2022-11-20T11:49:34;32.73;;;19.87;;
18726;SDS011;9492;51.888;5.186;2022-11-20T11:52:02;39.40;;;22.47;;
18726;SDS011;9492;51.888;5.186;2022-11-20T11:56:58;32.20;;;20.63;;
18726;SDS011;9492;51.888;5.186;2022-11-20T12:02:23;42.10;;;21.77;;
18726;SDS011;9492;51.888;5.186;2022-11-20T12:04:54;41.27;;;22.00;;
18726;SDS011;9492;51.888;5.186;2022-11-20T12:07:28;39.20;;;21.27;;
18726;SDS011;9492;51.888;5.186;2022-11-20T12:10:01;42.20;;;21.23;;
18726;SDS011;9492;51.888;5.186;2022-11-20T12:12:30;39.47;;;20.80;;
18726;SDS011;9492;51.888;5.186;2022-11-20T12:14:57;38.53;;;20.67;;
18726;SDS011;9492;51.888;5.186;2022-11-20T12:17:24;42.73;;;22.07;;
18726;SDS011;9492;51.888;5.186;2022-11-20T12:19:50;42.53;;;21.93;;
18726;SDS011;9492;51.888;5.186;2022-11-20T12:22:21;44.17;;;22.93;;
18726;SDS011;9492;51.888;5.186;2022-11-20T12:27:35;44.10;;;21.60;;
18726;SDS011;9492;51.888;5.186;2022-11-20T12:30:08;40.57;;;22.97;;
18726;SDS011;9492;51.888;5.186;2022-11-20T12:35:35;39.70;;;22.57;;
18726;SDS011;9492;51.888;5.186;2022-11-20T12:38:22;40.37;;;21.90;;
18726;SDS011;9492;51.888;5.186;2022-11-20T12:40:53;37.23;;;21.23;;
18726;SDS011;9492;51.888;5.186;2022-11-20T12:43:23;41.87;;;22.33;;
18726;SDS011;9492;51.888;5.186;2022-11-20T12:51:13;36.57;;;21.83;;
18726;SDS011;9492;51.888;5.186;2022-11-20T12:53:48;40.73;;;22.67;;
18726;SDS011;9492;51.888;5.186;2022-11-20T12:58:57;44.60;;;24.37;;
18726;SDS011;9492;51.888;5.186;2022-11-20T13:06:44;41.00;;;22.10;;
18726;SDS011;9492;51.888;5.186;2022-11-20T13:09:12;36.70;;;22.77;;
18726;SDS011;9492;51.888;5.186;2022-11-20T13:16:42;47.73;;;23.63;;
18726;SDS011;9492;51.888;5.186;2022-11-20T13:19:11;37.73;;;21.83;;
18726;SDS011;9492;51.888;5.186;2022-11-20T13:21:39;39.47;;;23.27;;
18726;SDS011;9492;51.888;5.186;2022-11-20T13:24:05;46.43;;;22.40;;
18726;SDS011;9492;51.888;5.186;2022-11-20T13:26:32;42.10;;;21.83;;
18726;SDS011;9492;51.888;5.186;2022-11-20T13:28:59;41.47;;;24.07;;
18726;SDS011;9492;51.888;5.186;2022-11-20T13:33:53;38.47;;;22.63;;
18726;SDS011;9492;51.888;5.186;2022-11-20T13:36:25;46.37;;;25.47;;
18726;SDS011;9492;51.888;5.186;2022-11-20T13:38:52;39.27;;;23.33;;
18726;SDS011;9492;51.888;5.186;2022-11-20T13:41:53;41.23;;;23.47;;
18726;SDS011;9492;51.888;5.186;2022-11-20T13:44:21;38.53;;;22.70;;
18726;SDS011;9492;51.888;5.186;2022-11-20T13:46:49;43.20;;;22.80;;
18726;SDS011;9492;51.888;5.186;2022-11-20T13:51:50;38.67;;;23.07;;
18726;SDS011;9492;51.888;5.186;2022-11-20T13:57:01;38.13;;;22.90;;
18726;SDS011;9492;51.888;5.186;2022-11-20T13:59:37;38.00;;;20.70;;
18726;SDS011;9492;51.888;5.186;2022-11-20T14:02:25;35.43;;;23.00;;
18726;SDS011;9492;51.888;5.186;2022-11-20T14:04:53;41.97;;;25.60;;
18726;SDS011;9492;51.888;5.186;2022-11-20T14:07:20;45.70;;;29.47;;
18726;SDS011;9492;51.888;5.186;2022-11-20T14:09:51;37.13;;;24.57;;
18726;SDS011;9492;51.888;5.186;2022-11-20T14:12:18;39.83;;;23.33;;
18726;SDS011;9492;51.888;5.186;2022-11-20T14:14:52;36.47;;;22.27;;
18726;SDS011;9492;51.888;5.186;2022-11-20T14:17:51;37.10;;;21.53;;
18726;SDS011;9492;51.888;5.186;2022-11-20T14:20:14;39.30;;;22.83;;
18726;SDS011;9492;51.888;5.186;2022-11-20T14:22:49;35.67;;;20.90;;
18726;SDS011;9492;51.888;5.186;2022-11-20T14:27:43;41.73;;;24.40;;
18726;SDS011;9492;51.888;5.186;2022-11-20T14:30:13;38.90;;;22.57;;
18726;SDS011;9492;51.888;5.186;2022-11-20T14:32:39;41.00;;;23.03;;
18726;SDS011;9492;51.888;5.186;2022-11-20T14:35:07;41.13;;;23.77;;
18726;SDS011;9492;51.888;5.186;2022-11-20T14:37:36;40.03;;;22.10;;
18726;SDS011;9492;51.888;5.186;2022-11-20T14:40:02;45.80;;;24.37;;
18726;SDS011;9492;51.888;5.186;2022-11-20T14:42:28;39.83;;;22.90;;
18726;SDS011;9492;51.888;5.186;2022-11-20T14:44:56;44.77;;;24.17;;
18726;SDS011;9492;51.888;5.186;2022-11-20T14:47:26;40.57;;;23.07;;
18726;SDS011;9492;51.888;5.186;2022-11-20T14:49:53;44.20;;;24.43;;
18726;SDS011;9492;51.888;5.186;2022-11-20T14:52:21;43.30;;;26.77;;
18726;SDS011;9492;51.888;5.186;2022-11-20T14:54:48;41.07;;;24.37;;
18726;SDS011;9492;51.888;5.186;2022-11-20T15:02:38;45.93;;;26.07;;
18726;SDS011;9492;51.888;5.186;2022-11-20T15:05:04;41.37;;;23.67;;
18726;SDS011;9492;51.888;5.186;2022-11-20T15:07:34;40.27;;;25.70;;
18726;SDS011;9492;51.888;5.186;2022-11-20T15:10:08;47.33;;;24.50;;
18726;SDS011;9492;51.888;5.186;2022-11-20T15:12:35;42.17;;;24.73;;
18726;SDS011;9492;51.888;5.186;2022-11-20T15:15:03;45.23;;;24.87;;
18726;SDS011;9492;51.888;5.186;2022-11-20T15:17:30;52.13;;;27.73;;
18726;SDS011;9492;51.888;5.186;2022-11-20T15:19:57;41.40;;;25.10;;
18726;SDS011;9492;51.888;5.186;2022-11-20T15:22:23;45.23;;;27.60;;
18726;SDS011;9492;51.888;5.186;2022-11-20T15:24:49;46.17;;;26.13;;
18726;SDS011;9492;51.888;5.186;2022-11-20T15:27:15;43.07;;;23.73;;
18726;SDS011;9492;51.888;5.186;2022-11-20T15:29:41;45.50;;;26.83;;
18726;SDS011;9492;51.888;5.186;2022-11-20T15:32:08;45.40;;;25.10;;
18726;SDS011;9492;51.888;5.186;2022-11-20T15:34:34;43.67;;;24.40;;
18726;SDS011;9492;51.888;5.186;2022-11-20T15:37:00;49.10;;;25.10;;
18726;SDS011;9492;51.888;5.186;2022-11-20T15:39:26;45.67;;;26.20;;
18726;SDS011;9492;51.888;5.186;2022-11-20T15:41:52;56.30;;;30.33;;
18726;SDS011;9492;51.888;5.186;2022-11-20T15:44:17;43.57;;;24.73;;
18726;SDS011;9492;51.888;5.186;2022-11-20T15:46:43;61.13;;;32.50;;
18726;SDS011;9492;51.888;5.186;2022-11-20T15:49:12;53.63;;;30.03;;
18726;SDS011;9492;51.888;5.186;2022-11-20T15:51:39;50.10;;;26.63;;
18726;SDS011;9492;51.888;5.186;2022-11-20T15:54:17;55.10;;;28.90;;
18726;SDS011;9492;51.888;5.186;2022-11-20T15:56:45;47.23;;;26.03;;
18726;SDS011;9492;51.888;5.186;2022-11-20T15:59:11;48.67;;;22.90;;
18726;SDS011;9492;51.888;5.186;2022-11-20T16:01:39;44.77;;;24.67;;